Für Piloten

Informationen für Piloten zum Flugplatz Borken-Hoxfeld
Hier findest Du alle relevanten Informationen, die Du als Pilot benötigst, um Borken-Hoxfeld anzufliegen.

Flugplatz: Borken-Hoxfeld ICAO-Code: EDLY
Borken-Hoxfeld Info: 122,930 Mhz
GAFOR Gebiet: 32
Platzrunde: Motorflug; -> Südplatzrunde; Segelflug; -> Nordplatzrunde;
Landegebühr: z.Zt. 5,00 Euro
Platzhöhe: 48m üMSL
Pisten: 12/30 – 740 m x 30 m, GRAS
Betriebszeiten: PPR (in den Sommermonaten Mittagspause beachten)

 

Wetterforecast:

Available data for EDDL from the past 2 hours
DUESSELDORF
Metar
EDDL 250150Z 16011KT CAVOK 12/07 Q1026 NOSIG

01:50 UTC

Wind: 160° 11kt

Visibility:

Sky:

Temp: 12 deg C / 53.6 deg F

Dewpoint: 7 deg C / 44.6 deg F

Pressure: 1026 hPa

TAF
TAF EDDL 242300Z 2500/2606 16010KT CAVOK BECMG 2510/2513 23009KT BECMG 2516/2519 33005KT BECMG 2601/2603 BKN012 TEMPO 2603/2606 4000 RA BR BKN008

Alle obigen Informationen ersetzen nicht die vorgeschriebene, persönliche Flugvorbereitung.